createdAt,value
2022-09-03T00:01:19.517Z,99.90
2022-09-03T00:06:34.261Z,99.90
2022-09-03T00:11:58.315Z,99.90
2022-09-03T00:17:09.362Z,99.90
2022-09-03T00:22:18.975Z,99.90
2022-09-03T00:27:24.908Z,99.90
2022-09-03T00:32:59.405Z,99.90
2022-09-03T00:38:01.469Z,99.90
2022-09-03T00:43:42.479Z,99.90
2022-09-03T00:49:05.752Z,99.90
2022-09-03T00:54:15.326Z,99.90
2022-09-03T00:59:35.855Z,99.90
2022-09-03T01:05:08.417Z,99.90
2022-09-03T01:10:26.122Z,99.90
2022-09-03T01:15:44.449Z,99.90
2022-09-03T01:21:05.643Z,99.90
2022-09-03T01:26:45.091Z,99.90
2022-09-03T01:31:58.889Z,99.90
2022-09-03T01:37:06.493Z,99.90
2022-09-03T01:42:42.220Z,99.90
2022-09-03T01:48:10.919Z,99.90
2022-09-03T01:53:27.496Z,99.90
2022-09-03T01:58:40.654Z,99.90
2022-09-03T02:03:45.513Z,99.90
2022-09-03T02:08:47.301Z,99.90
2022-09-03T02:13:52.725Z,99.90
2022-09-03T02:18:59.844Z,99.90
2022-09-03T02:24:03.796Z,99.90
2022-09-03T02:29:05.808Z,99.90
2022-09-03T02:34:07.680Z,99.90
2022-09-03T02:39:09.779Z,99.90
2022-09-03T02:44:25.813Z,99.90
2022-09-03T02:49:28.677Z,99.90
2022-09-03T02:54:31.263Z,99.90
2022-09-03T02:59:33.412Z,99.90
2022-09-03T03:04:35.228Z,99.90
2022-09-03T03:09:37.005Z,99.90
2022-09-03T03:14:38.836Z,99.90
2022-09-03T03:19:40.774Z,99.90
2022-09-03T03:24:42.570Z,99.90
2022-09-03T03:29:44.368Z,99.90
2022-09-03T03:34:46.210Z,99.90
2022-09-03T03:39:47.990Z,99.90
2022-09-03T03:44:49.831Z,99.90
2022-09-03T03:49:51.600Z,99.90
2022-09-03T03:54:54.439Z,99.90
2022-09-03T03:59:57.296Z,99.90
2022-09-03T04:04:59.048Z,99.90
2022-09-03T04:10:00.805Z,99.90
2022-09-03T04:15:02.634Z,99.90
2022-09-03T04:20:04.799Z,99.90
2022-09-03T04:25:06.833Z,99.90
2022-09-03T04:30:09.200Z,99.90
2022-09-03T04:35:11.325Z,99.90
2022-09-03T04:40:13.352Z,99.90
2022-09-03T04:45:18.773Z,99.90
2022-09-03T04:50:20.799Z,99.90
2022-09-03T04:55:23.103Z,99.90
2022-09-03T05:00:24.944Z,99.90
2022-09-03T05:05:26.741Z,99.90
2022-09-03T05:10:29.019Z,99.90
2022-09-03T05:15:32.977Z,99.90
2022-09-03T05:20:34.773Z,99.90
2022-09-03T05:25:38.075Z,99.90
2022-09-03T05:30:40.039Z,99.90
2022-09-03T05:35:41.887Z,99.90
2022-09-03T05:40:44.323Z,99.90
2022-09-03T05:45:46.158Z,99.90
2022-09-03T05:50:48.973Z,99.90
2022-09-03T05:56:17.987Z,99.90
2022-09-03T06:01:26.236Z,99.90
2022-09-03T06:06:30.428Z,99.90
2022-09-03T06:11:33.460Z,99.90
2022-09-03T06:16:38.839Z,99.90
2022-09-03T06:21:43.153Z,99.90
2022-09-03T06:26:45.921Z,99.90
2022-09-03T06:31:48.847Z,99.90
2022-09-03T06:36:51.197Z,99.90
2022-09-03T06:41:56.417Z,99.90
2022-09-03T06:47:09.305Z,99.90
2022-09-03T06:52:11.052Z,99.90
2022-09-03T06:57:12.801Z,99.90
2022-09-03T07:02:14.631Z,99.90
2022-09-03T07:07:16.546Z,99.90
2022-09-03T07:12:19.267Z,99.90
2022-09-03T07:17:21.044Z,99.90
2022-09-03T07:22:22.849Z,99.90
2022-09-03T07:27:35.291Z,99.90
2022-09-03T07:32:40.886Z,99.90
2022-09-03T07:37:43.309Z,99.90
2022-09-03T07:42:45.092Z,99.90
2022-09-03T07:47:49.527Z,99.90
2022-09-03T07:52:58.414Z,99.90
2022-09-03T07:58:00.227Z,99.90
2022-09-03T08:03:06.146Z,99.90
2022-09-03T08:08:08.233Z,99.90
2022-09-03T08:13:10.980Z,99.90
2022-09-03T08:18:13.260Z,99.90
2022-09-03T08:23:16.317Z,99.90
2022-09-03T08:28:18.822Z,99.90
2022-09-03T08:33:36.970Z,99.90
2022-09-03T08:38:42.356Z,99.90
2022-09-03T08:44:05.189Z,99.90
2022-09-03T08:49:12.377Z,99.90
2022-09-03T08:54:15.081Z,99.90
2022-09-03T08:59:16.906Z,99.90
2022-09-03T09:04:46.973Z,99.90
2022-09-03T09:09:58.029Z,99.90
2022-09-03T09:15:26.349Z,99.90
2022-09-03T09:21:06.696Z,99.90
2022-09-03T09:26:13.799Z,99.90
2022-09-03T09:31:18.861Z,99.90
2022-09-03T09:36:23.308Z,99.90
2022-09-03T09:41:29.557Z,99.90
2022-09-03T09:46:38.044Z,99.90
2022-09-03T09:51:40.568Z,99.90
2022-09-03T09:56:44.557Z,99.90
2022-09-03T10:01:46.486Z,99.90
2022-09-03T10:06:57.198Z,99.90
2022-09-03T10:12:24.626Z,99.90
2022-09-03T10:17:37.014Z,99.90
2022-09-03T10:22:52.452Z,99.90
2022-09-03T10:28:01.946Z,99.90
2022-09-03T10:33:41.610Z,99.90
2022-09-03T10:38:45.540Z,99.90
2022-09-03T10:44:15.281Z,99.90
2022-09-03T10:50:10.961Z,99.90
2022-09-03T10:55:31.621Z,99.90
2022-09-03T11:00:39.797Z,99.90
2022-09-03T11:06:10.575Z,99.90
2022-09-03T11:11:20.037Z,99.90
2022-09-03T11:16:27.220Z,99.90
2022-09-03T11:21:31.657Z,99.70
2022-09-03T11:26:35.240Z,99.90
2022-09-03T11:31:57.692Z,98.10
2022-09-03T11:37:19.320Z,97.20
2022-09-03T11:42:28.047Z,97.10
2022-09-03T11:47:41.233Z,96.50
2022-09-03T11:52:43.085Z,97.60
2022-09-03T11:57:44.858Z,97.80
2022-09-03T12:03:01.226Z,97.50
2022-09-03T12:08:21.011Z,97.40
2022-09-03T12:13:25.895Z,95.30
2022-09-03T12:18:33.760Z,94.40
2022-09-03T12:23:40.368Z,94.40
2022-09-03T12:28:46.179Z,94.00
2022-09-03T12:33:50.024Z,93.60
2022-09-03T12:44:14.233Z,91.20
2022-09-03T12:49:31.395Z,89.80
2022-09-03T12:54:37.861Z,87.70
2022-09-03T12:59:40.020Z,86.40
2022-09-03T13:04:42.937Z,87.30
2022-09-03T13:09:47.102Z,87.40
2022-09-03T13:14:52.539Z,86.20
2022-09-03T13:20:25.203Z,87.80
2022-09-03T13:25:50.806Z,84.50
2022-09-03T13:31:22.854Z,80.30
2022-09-03T13:36:31.645Z,76.50
2022-09-03T13:41:57.314Z,78.20
2022-09-03T13:47:09.961Z,75.40
2022-09-03T13:52:22.434Z,75.20
2022-09-03T13:57:42.285Z,74.20
2022-09-03T14:02:50.081Z,76.00
2022-09-03T14:07:57.975Z,74.10
2022-09-03T14:13:12.359Z,69.80
2022-09-03T14:18:26.757Z,69.50
2022-09-03T14:23:37.894Z,67.60
2022-09-03T14:28:50.008Z,68.10
2022-09-03T14:34:06.094Z,68.30
2022-09-03T14:39:27.646Z,69.60
2022-09-03T14:44:56.845Z,70.10
2022-09-03T14:50:26.184Z,66.30
2022-09-03T14:55:43.223Z,66.90
2022-09-03T15:01:13.358Z,68.60
2022-09-03T15:06:34.488Z,70.50
2022-09-03T15:12:02.368Z,74.30
2022-09-03T15:17:05.022Z,73.20
2022-09-03T15:22:42.823Z,73.80
2022-09-03T15:28:25.247Z,73.30
2022-09-03T15:33:45.438Z,73.90
2022-09-03T15:39:13.557Z,73.40
2022-09-03T15:44:20.451Z,74.90
2022-09-03T15:49:29.958Z,77.20
2022-09-03T15:54:45.485Z,78.00
2022-09-03T16:00:03.634Z,78.60
2022-09-03T16:05:39.632Z,78.70
2022-09-03T16:11:08.041Z,78.90
2022-09-03T16:16:23.971Z,79.80
2022-09-03T16:21:48.068Z,79.50
2022-09-03T16:27:19.452Z,80.30
2022-09-03T16:32:35.609Z,80.80
2022-09-03T16:38:07.350Z,81.10
2022-09-03T16:43:41.171Z,83.80
2022-09-03T16:49:29.566Z,83.10
2022-09-03T16:54:57.216Z,85.00
2022-09-03T17:00:15.424Z,83.90
2022-09-03T17:05:47.220Z,85.70
2022-09-03T17:11:20.806Z,86.80
2022-09-03T17:16:53.465Z,87.00
2022-09-03T17:22:23.514Z,87.90
2022-09-03T17:27:31.248Z,89.00
2022-09-03T17:32:47.317Z,89.70
2022-09-03T17:38:21.242Z,90.00
2022-09-03T17:43:35.473Z,90.50
2022-09-03T17:48:53.488Z,90.40
2022-09-03T17:54:08.851Z,90.80
2022-09-03T17:59:34.724Z,91.30
2022-09-03T18:04:50.393Z,91.30
2022-09-03T18:10:30.184Z,91.60
2022-09-03T18:15:48.230Z,91.90
2022-09-03T18:21:24.354Z,92.30
2022-09-03T18:26:49.996Z,92.30
2022-09-03T18:32:10.319Z,92.60
2022-09-03T18:37:30.622Z,93.00
2022-09-03T18:43:23.905Z,92.90
2022-09-03T18:48:54.792Z,93.20
2022-09-03T18:54:36.903Z,93.20
2022-09-03T19:00:28.599Z,93.40
2022-09-03T19:06:15.742Z,93.60
2022-09-03T19:11:57.239Z,93.50
2022-09-03T19:17:39.040Z,93.90
2022-09-03T19:23:00.972Z,93.80
2022-09-03T19:28:27.374Z,93.70
2022-09-03T19:34:31.518Z,94.40
2022-09-03T19:39:55.028Z,94.50
2022-09-03T19:45:25.569Z,94.60
2022-09-03T19:50:52.486Z,94.70
2022-09-03T19:56:15.174Z,94.80
2022-09-03T20:01:37.347Z,94.60
2022-09-03T20:06:58.544Z,94.90
2022-09-03T20:12:09.207Z,95.00
2022-09-03T20:17:34.587Z,95.00
2022-09-03T20:22:49.910Z,94.90
2022-09-03T20:27:57.387Z,95.00
2022-09-03T20:33:42.139Z,95.10
2022-09-03T20:38:58.416Z,95.10
2022-09-03T20:44:09.174Z,95.10
2022-09-03T20:49:20.576Z,95.30
2022-09-03T20:54:47.378Z,95.40
2022-09-03T20:59:55.105Z,95.60
2022-09-03T21:05:17.485Z,95.80
2022-09-03T21:10:43.428Z,95.70
2022-09-03T21:16:06.203Z,95.90
2022-09-03T21:21:16.767Z,96.10
2022-09-03T21:26:30.992Z,96.20
2022-09-03T21:31:49.445Z,96.40
2022-09-03T21:36:51.483Z,96.60
2022-09-03T21:41:56.662Z,96.60
2022-09-03T21:47:13.339Z,96.60
2022-09-03T21:52:20.961Z,96.70
2022-09-03T21:57:43.941Z,96.80
2022-09-03T22:02:47.334Z,96.90
2022-09-03T22:08:42.077Z,97.00
2022-09-03T22:13:44.193Z,97.30
2022-09-03T22:18:47.114Z,97.40
2022-09-03T22:24:24.533Z,97.80
2022-09-03T22:29:53.196Z,98.00
2022-09-03T22:35:13.497Z,98.10
2022-09-03T22:40:25.991Z,98.50
2022-09-03T22:45:45.641Z,98.60
2022-09-03T22:51:01.759Z,98.60
2022-09-03T22:56:12.435Z,98.70
2022-09-03T23:01:38.475Z,98.80
2022-09-03T23:06:53.561Z,98.80
2022-09-03T23:12:01.231Z,99.10
2022-09-03T23:17:20.181Z,99.10
2022-09-03T23:22:24.440Z,99.20
2022-09-03T23:27:51.474Z,99.50
2022-09-03T23:32:57.110Z,99.80
2022-09-03T23:38:13.917Z,99.90
2022-09-03T23:43:42.206Z,99.90
2022-09-03T23:49:16.579Z,99.90
2022-09-03T23:54:46.725Z,99.90
2022-09-03T23:59:57.225Z,99.90
